Briefing drone pour Chatenoy-le-royal

Rechercher une autre localisation

Conditions de vol :


Nous sommes le : Samedi 24 septembre 2022
Il est 21:57 UTC (23:57 LT)

Lever de soleil : 05:03 UTC (07:03 LT)
Coucher de soleil : 18:01 UTC (20:01 LT)

Météo

L'essentiel des conditions de vol

VIGILANCE MÉTÉO FRANCE - Saône-et-Loire (71)
Vigilance Jaune : Orages
METAR de LFLH
LFLH 241800Z AUTO 35005KT CAVOK 17/09 Q1012

Date d'émission: 24/09/2022
Heure d'émission: 18:00 UTC
Vent: 350° pour 5 KT (9 km/h)
Visibilité horizontale: > 10 km
Plafond : Plafond et visibilité OK (CAVOK)
Température: 17 °C
Point de rosée: 9 °C
Humidité: 59%
Pression (QNH): 1012 hPa
Prévision 24h pour Chalon-sur-saone (2 km)
Vent : 344° pour 2 KT (6 km/h)
Temperature Maxi: 13 °C
Temperature Min: 13 °C
Humidité : 86%
Condition : Légère pluie



Warning: count(): Parameter must be an array or an object that implements Countable in /homepages/6/d509196549/htdocs/droneoxygene/briefing.php on line 743
WEBCAM POUR CHATENOY-LE-ROYAL

Réglementation

Voler en sécurité

CARTES AERONAUTIQUE 1/500.000
CARTE AZBA (Reseau basse altitude)
CARTES VAC (LFLH)
SUP AIP




Chargement des AIP...
NOTAM (CHATENOY-LE-ROYAL + Terrain à proximité / FIR )




Chargement des NOTAMS...
CONTACT PREFECTURE 71


Avertissement : Les données mises à disposition sont indicatives. Oxygène Drone ne pourra être tenu responsable de dégâts causés aux biens et aux personnes.